Brandon, Minnesota
Current Conditions -  °F | °C
As of 5:53 PM on Thursday 27 Nov 2014 (Local Time) from KAXN Reporting Station
Overcast Overcast  
Wind Chill: -9°   Ceiling: 11000
Heat Index:   Visibility: 10mi
Dew Point: -2°   Wind: 9mph
Humidity: 73%   Direction: 140°SE
Pressure: 30.27"   Gusts: NA
Location:  45.97°N, 95.6°W
Report Text: KAXN 272353Z AUTO 14008KT 10SM OVC110 M15/M19 A3027 RMK AO2 SLP294 T11501189 11139 21161 58020
Loading
Personal Weather Stations






























Interactive Weather Map New forecast layout! Learn more

10-Day Weather Forecast

Advertisements
Track Severe Weather on mobile